sensor_id;sensor_type;location;lat;lon;timestamp;pressure;altitude;pressure_sealevel;temperature;humidity
40908;BME280;51055;59.436;24.778;2023-04-26T00:01:43;100213.06;;;12.47;57.05
40908;BME280;51055;59.436;24.778;2023-04-26T00:04:12;100211.69;;;12.43;57.46
40908;BME280;51055;59.436;24.778;2023-04-26T00:06:40;100211.16;;;12.39;57.72
40908;BME280;51055;59.436;24.778;2023-04-26T00:09:08;100212.41;;;12.35;58.43
40908;BME280;51055;59.436;24.778;2023-04-26T00:11:35;100213.84;;;12.30;58.77
40908;BME280;51055;59.436;24.778;2023-04-26T00:14:03;100211.75;;;12.24;58.70
40908;BME280;51055;59.436;24.778;2023-04-26T00:16:31;100219.97;;;12.30;58.62
40908;BME280;51055;59.436;24.778;2023-04-26T00:18:59;100216.66;;;12.19;58.62
40908;BME280;51055;59.436;24.778;2023-04-26T00:21:26;100219.44;;;12.17;58.93
40908;BME280;51055;59.436;24.778;2023-04-26T00:23:55;100227.31;;;12.09;58.85
40908;BME280;51055;59.436;24.778;2023-04-26T00:26:22;100213.44;;;12.15;58.59
40908;BME280;51055;59.436;24.778;2023-04-26T00:28:50;100212.91;;;12.12;59.13
40908;BME280;51055;59.436;24.778;2023-04-26T00:31:18;100209.56;;;12.10;58.78
40908;BME280;51055;59.436;24.778;2023-04-26T00:33:46;100197.69;;;11.94;60.01
40908;BME280;51055;59.436;24.778;2023-04-26T00:36:14;100210.84;;;11.96;59.61
40908;BME280;51055;59.436;24.778;2023-04-26T00:38:45;100214.75;;;12.01;60.10
40908;BME280;51055;59.436;24.778;2023-04-26T00:41:13;100216.84;;;11.88;60.97
40908;BME280;51055;59.436;24.778;2023-04-26T00:43:41;100227.50;;;11.88;60.81
40908;BME280;51055;59.436;24.778;2023-04-26T00:46:09;100229.75;;;11.83;61.17
40908;BME280;51055;59.436;24.778;2023-04-26T00:48:37;100228.91;;;11.83;61.55
40908;BME280;51055;59.436;24.778;2023-04-26T00:51:05;100229.03;;;11.81;61.91
40908;BME280;51055;59.436;24.778;2023-04-26T00:53:33;100221.50;;;11.77;62.42
40908;BME280;51055;59.436;24.778;2023-04-26T00:56:02;100219.13;;;11.74;63.46
40908;BME280;51055;59.436;24.778;2023-04-26T00:58:33;100221.31;;;11.69;63.95
40908;BME280;51055;59.436;24.778;2023-04-26T01:01:00;100216.19;;;11.58;65.14
40908;BME280;51055;59.436;24.778;2023-04-26T01:03:29;100219.53;;;11.40;66.14
40908;BME280;51055;59.436;24.778;2023-04-26T01:05:57;100224.81;;;11.21;67.77
40908;BME280;51055;59.436;24.778;2023-04-26T01:08:26;100231.03;;;10.91;68.74
40908;BME280;51055;59.436;24.778;2023-04-26T01:10:54;100234.91;;;10.78;70.52
40908;BME280;51055;59.436;24.778;2023-04-26T01:13:22;100230.78;;;10.55;71.67
40908;BME280;51055;59.436;24.778;2023-04-26T01:15:50;100227.16;;;10.56;73.83
40908;BME280;51055;59.436;24.778;2023-04-26T01:18:18;100243.72;;;10.48;74.63
40908;BME280;51055;59.436;24.778;2023-04-26T01:20:46;100231.13;;;10.40;74.34
40908;BME280;51055;59.436;24.778;2023-04-26T01:23:17;100234.84;;;10.28;75.36
40908;BME280;51055;59.436;24.778;2023-04-26T01:25:45;100236.31;;;10.21;76.06
40908;BME280;51055;59.436;24.778;2023-04-26T01:28:13;100229.94;;;10.24;77.19
40908;BME280;51055;59.436;24.778;2023-04-26T01:30:41;100227.28;;;10.24;77.08
40908;BME280;51055;59.436;24.778;2023-04-26T01:33:09;100233.53;;;10.02;78.46
40908;BME280;51055;59.436;24.778;2023-04-26T01:35:37;100245.25;;;10.00;78.17
40908;BME280;51055;59.436;24.778;2023-04-26T01:38:04;100250.09;;;10.15;77.92
40908;BME280;51055;59.436;24.778;2023-04-26T01:40:32;100256.25;;;10.16;78.35
40908;BME280;51055;59.436;24.778;2023-04-26T01:42:59;100293.19;;;9.97;78.36
40908;BME280;51055;59.436;24.778;2023-04-26T01:45:29;100272.00;;;9.97;79.47
40908;BME280;51055;59.436;24.778;2023-04-26T01:47:57;100263.91;;;9.77;79.76
40908;BME280;51055;59.436;24.778;2023-04-26T01:50:25;100258.44;;;9.90;80.83
40908;BME280;51055;59.436;24.778;2023-04-26T01:52:53;100244.81;;;9.94;81.46
40908;BME280;51055;59.436;24.778;2023-04-26T01:55:20;100241.16;;;9.95;81.44
40908;BME280;51055;59.436;24.778;2023-04-26T01:57:48;100236.97;;;9.93;82.20
40908;BME280;51055;59.436;24.778;2023-04-26T02:00:16;100231.94;;;10.11;82.02
40908;BME280;51055;59.436;24.778;2023-04-26T02:02:44;100234.13;;;10.06;81.46
40908;BME280;51055;59.436;24.778;2023-04-26T02:05:12;100241.84;;;9.88;82.89
40908;BME280;51055;59.436;24.778;2023-04-26T02:07:40;100252.97;;;9.91;84.54
40908;BME280;51055;59.436;24.778;2023-04-26T02:10:08;100254.72;;;10.02;84.27
40908;BME280;51055;59.436;24.778;2023-04-26T02:12:36;100246.28;;;9.87;84.60
40908;BME280;51055;59.436;24.778;2023-04-26T02:15:04;100247.34;;;9.85;85.60
40908;BME280;51055;59.436;24.778;2023-04-26T02:17:32;100237.09;;;9.91;85.62
40908;BME280;51055;59.436;24.778;2023-04-26T02:20:00;100236.28;;;9.91;86.04
40908;BME280;51055;59.436;24.778;2023-04-26T02:22:28;100238.72;;;10.04;86.81
40908;BME280;51055;59.436;24.778;2023-04-26T02:24:56;100245.50;;;9.97;86.15
40908;BME280;51055;59.436;24.778;2023-04-26T02:27:24;100243.56;;;9.99;86.29
40908;BME280;51055;59.436;24.778;2023-04-26T02:29:52;100225.63;;;9.81;87.94
40908;BME280;51055;59.436;24.778;2023-04-26T02:32:20;100236.66;;;9.86;89.56
40908;BME280;51055;59.436;24.778;2023-04-26T02:34:48;100250.09;;;9.94;87.89
40908;BME280;51055;59.436;24.778;2023-04-26T02:37:16;100245.28;;;9.88;87.75
40908;BME280;51055;59.436;24.778;2023-04-26T02:39:44;100251.44;;;9.89;88.12
40908;BME280;51055;59.436;24.778;2023-04-26T02:42:11;100245.28;;;9.88;88.89
40908;BME280;51055;59.436;24.778;2023-04-26T02:44:39;100233.31;;;9.84;90.36
40908;BME280;51055;59.436;24.778;2023-04-26T02:47:08;100229.13;;;9.91;90.25
40908;BME280;51055;59.436;24.778;2023-04-26T02:49:36;100227.78;;;9.76;90.99
40908;BME280;51055;59.436;24.778;2023-04-26T02:52:04;100226.56;;;9.80;92.18
40908;BME280;51055;59.436;24.778;2023-04-26T02:54:31;100231.47;;;9.85;91.15
40908;BME280;51055;59.436;24.778;2023-04-26T02:56:59;100235.63;;;9.78;91.91
40908;BME280;51055;59.436;24.778;2023-04-26T02:59:28;100238.13;;;9.79;93.18
40908;BME280;51055;59.436;24.778;2023-04-26T03:01:55;100245.31;;;9.68;92.78
40908;BME280;51055;59.436;24.778;2023-04-26T03:04:23;100232.56;;;9.82;94.45
40908;BME280;51055;59.436;24.778;2023-04-26T03:06:51;100242.25;;;9.72;93.67
40908;BME280;51055;59.436;24.778;2023-04-26T03:09:18;100253.06;;;9.80;93.35
40908;BME280;51055;59.436;24.778;2023-04-26T03:11:46;100263.50;;;9.61;92.13
40908;BME280;51055;59.436;24.778;2023-04-26T03:14:16;100262.59;;;9.72;94.31
40908;BME280;51055;59.436;24.778;2023-04-26T03:16:44;100263.66;;;9.80;93.97
40908;BME280;51055;59.436;24.778;2023-04-26T03:19:12;100260.59;;;9.85;94.26
40908;BME280;51055;59.436;24.778;2023-04-26T03:21:40;100252.75;;;9.94;92.65
40908;BME280;51055;59.436;24.778;2023-04-26T03:24:08;100253.56;;;9.95;93.38
40908;BME280;51055;59.436;24.778;2023-04-26T03:26:35;100247.44;;;9.94;93.29
40908;BME280;51055;59.436;24.778;2023-04-26T03:29:04;100243.88;;;10.05;92.68
40908;BME280;51055;59.436;24.778;2023-04-26T03:31:31;100243.59;;;10.08;91.29
40908;BME280;51055;59.436;24.778;2023-04-26T03:33:59;100240.84;;;10.10;91.90
40908;BME280;51055;59.436;24.778;2023-04-26T03:36:27;100238.41;;;9.97;92.49
40908;BME280;51055;59.436;24.778;2023-04-26T03:38:55;100240.38;;;10.05;92.25
40908;BME280;51055;59.436;24.778;2023-04-26T03:41:23;100249.78;;;9.88;92.91
40908;BME280;51055;59.436;24.778;2023-04-26T03:43:51;100258.59;;;9.98;92.91
40908;BME280;51055;59.436;24.778;2023-04-26T03:46:18;100265.38;;;10.12;91.32
40908;BME280;51055;59.436;24.778;2023-04-26T03:48:46;100267.22;;;9.90;92.81
40908;BME280;51055;59.436;24.778;2023-04-26T03:51:14;100263.56;;;9.91;93.15
40908;BME280;51055;59.436;24.778;2023-04-26T03:53:42;100258.69;;;10.08;92.21
40908;BME280;51055;59.436;24.778;2023-04-26T03:56:09;100266.59;;;10.19;91.66
40908;BME280;51055;59.436;24.778;2023-04-26T03:58:37;100264.91;;;10.18;90.55
40908;BME280;51055;59.436;24.778;2023-04-26T04:01:05;100259.75;;;10.16;90.88
40908;BME280;51055;59.436;24.778;2023-04-26T04:03:33;100265.63;;;10.20;91.93
40908;BME280;51055;59.436;24.778;2023-04-26T04:06:01;100269.13;;;10.20;89.89
40908;BME280;51055;59.436;24.778;2023-04-26T04:08:29;100278.94;;;10.29;91.21
40908;BME280;51055;59.436;24.778;2023-04-26T04:10:56;100282.28;;;10.31;90.50
40908;BME280;51055;59.436;24.778;2023-04-26T04:13:24;100280.22;;;10.35;90.51
40908;BME280;51055;59.436;24.778;2023-04-26T04:15:52;100293.56;;;10.54;88.91
40908;BME280;51055;59.436;24.778;2023-04-26T04:18:20;100298.41;;;10.70;88.14
40908;BME280;51055;59.436;24.778;2023-04-26T04:20:48;100298.84;;;10.75;87.68
40908;BME280;51055;59.436;24.778;2023-04-26T04:23:15;100310.59;;;10.52;86.43
40908;BME280;51055;59.436;24.778;2023-04-26T04:25:43;100317.72;;;10.51;86.59
40908;BME280;51055;59.436;24.778;2023-04-26T04:28:11;100318.91;;;10.68;85.70
40908;BME280;51055;59.436;24.778;2023-04-26T04:30:40;100315.88;;;10.72;84.85
40908;BME280;51055;59.436;24.778;2023-04-26T04:33:09;100319.94;;;10.76;83.70
40908;BME280;51055;59.436;24.778;2023-04-26T04:35:37;100310.72;;;10.80;82.37
40908;BME280;51055;59.436;24.778;2023-04-26T04:38:07;100312.44;;;10.61;80.57
40908;BME280;51055;59.436;24.778;2023-04-26T04:40:34;100314.84;;;10.64;79.92
40908;BME280;51055;59.436;24.778;2023-04-26T04:43:02;100312.19;;;10.64;79.23
40908;BME280;51055;59.436;24.778;2023-04-26T04:45:29;100314.97;;;10.62;80.43
40908;BME280;51055;59.436;24.778;2023-04-26T04:47:57;100313.50;;;10.69;79.21
40908;BME280;51055;59.436;24.778;2023-04-26T04:50:25;100313.00;;;10.85;79.42
40908;BME280;51055;59.436;24.778;2023-04-26T04:52:54;100318.34;;;10.94;78.60
40908;BME280;51055;59.436;24.778;2023-04-26T04:55:22;100303.56;;;11.02;78.59
40908;BME280;51055;59.436;24.778;2023-04-26T04:57:49;100301.50;;;11.15;78.45
40908;BME280;51055;59.436;24.778;2023-04-26T05:00:17;100299.69;;;11.15;79.98
40908;BME280;51055;59.436;24.778;2023-04-26T05:02:45;100292.78;;;11.03;80.37
40908;BME280;51055;59.436;24.778;2023-04-26T05:05:13;100287.53;;;11.22;81.09
40908;BME280;51055;59.436;24.778;2023-04-26T05:07:41;100288.69;;;11.39;81.22
40908;BME280;51055;59.436;24.778;2023-04-26T05:10:09;100286.69;;;11.71;79.34
40908;BME280;51055;59.436;24.778;2023-04-26T05:12:37;100281.16;;;11.44;79.61
40908;BME280;51055;59.436;24.778;2023-04-26T05:15:05;100291.31;;;11.20;81.63
40908;BME280;51055;59.436;24.778;2023-04-26T05:17:33;100278.47;;;11.25;83.27
40908;BME280;51055;59.436;24.778;2023-04-26T05:20:02;100268.50;;;11.76;82.97
40908;BME280;51055;59.436;24.778;2023-04-26T05:22:33;100275.41;;;12.35;80.13
40908;BME280;51055;59.436;24.778;2023-04-26T05:25:03;100279.84;;;12.44;77.86
40908;BME280;51055;59.436;24.778;2023-04-26T05:27:31;100275.44;;;12.25;76.04
40908;BME280;51055;59.436;24.778;2023-04-26T05:30:03;100279.25;;;12.04;77.87
40908;BME280;51055;59.436;24.778;2023-04-26T05:32:32;100280.09;;;11.75;77.98
40908;BME280;51055;59.436;24.778;2023-04-26T05:35:00;100277.03;;;11.70;80.59
40908;BME280;51055;59.436;24.778;2023-04-26T05:37:28;100280.34;;;11.91;79.91
40908;BME280;51055;59.436;24.778;2023-04-26T05:39:56;100283.84;;;12.11;78.97
40908;BME280;51055;59.436;24.778;2023-04-26T05:42:24;100277.09;;;12.36;78.22
40908;BME280;51055;59.436;24.778;2023-04-26T05:44:58;100279.78;;;12.26;76.82
40908;BME280;51055;59.436;24.778;2023-04-26T05:47:26;100279.78;;;12.26;77.21
40908;BME280;51055;59.436;24.778;2023-04-26T05:49:54;100275.84;;;12.21;77.04
40908;BME280;51055;59.436;24.778;2023-04-26T05:52:22;100282.88;;;11.93;77.86
40908;BME280;51055;59.436;24.778;2023-04-26T05:54:50;100280.22;;;11.93;78.98
40908;BME280;51055;59.436;24.778;2023-04-26T05:57:17;100274.22;;;11.81;80.53
40908;BME280;51055;59.436;24.778;2023-04-26T05:59:46;100275.63;;;11.85;80.70
40908;BME280;51055;59.436;24.778;2023-04-26T06:02:14;100282.03;;;11.92;80.33
40908;BME280;51055;59.436;24.778;2023-04-26T06:04:42;100284.00;;;12.00;80.35
40908;BME280;51055;59.436;24.778;2023-04-26T06:07:10;100283.56;;;12.14;80.24
40908;BME280;51055;59.436;24.778;2023-04-26T06:09:41;100289.97;;;12.21;79.11
40908;BME280;51055;59.436;24.778;2023-04-26T06:12:08;100284.84;;;12.10;79.57
40908;BME280;51055;59.436;24.778;2023-04-26T06:14:36;100274.03;;;12.12;80.08
40908;BME280;51055;59.436;24.778;2023-04-26T06:17:04;100274.84;;;12.31;78.93
40908;BME280;51055;59.436;24.778;2023-04-26T06:19:32;100278.22;;;12.14;78.29
40908;BME280;51055;59.436;24.778;2023-04-26T06:22:00;100281.19;;;12.01;79.07
40908;BME280;51055;59.436;24.778;2023-04-26T06:24:29;100282.03;;;12.12;79.63
40908;BME280;51055;59.436;24.778;2023-04-26T06:26:56;100284.34;;;12.34;79.27
40908;BME280;51055;59.436;24.778;2023-04-26T06:29:24;100287.53;;;12.47;78.60
40908;BME280;51055;59.436;24.778;2023-04-26T06:31:52;100283.97;;;12.75;77.27
40908;BME280;51055;59.436;24.778;2023-04-26T06:34:20;100282.41;;;12.82;74.02
40908;BME280;51055;59.436;24.778;2023-04-26T06:36:48;100293.69;;;12.47;73.64
40908;BME280;51055;59.436;24.778;2023-04-26T06:39:15;100301.13;;;12.44;74.26
40908;BME280;51055;59.436;24.778;2023-04-26T06:41:44;100309.41;;;12.41;73.47
40908;BME280;51055;59.436;24.778;2023-04-26T06:44:11;100301.16;;;12.34;73.61
40908;BME280;51055;59.436;24.778;2023-04-26T06:46:39;100298.22;;;12.28;73.53
40908;BME280;51055;59.436;24.778;2023-04-26T06:49:08;100297.41;;;12.18;73.69
40908;BME280;51055;59.436;24.778;2023-04-26T06:51:36;100312.94;;;12.13;74.39
40908;BME280;51055;59.436;24.778;2023-04-26T06:54:04;100311.13;;;12.13;74.70
40908;BME280;51055;59.436;24.778;2023-04-26T06:56:31;100323.88;;;12.10;74.26
40908;BME280;51055;59.436;24.778;2023-04-26T06:59:01;100319.81;;;12.06;75.22
40908;BME280;51055;59.436;24.778;2023-04-26T07:01:30;100317.81;;;12.17;75.50
40908;BME280;51055;59.436;24.778;2023-04-26T07:04:01;100317.94;;;12.35;75.15
40908;BME280;51055;59.436;24.778;2023-04-26T07:06:30;100329.03;;;12.40;73.00
40908;BME280;51055;59.436;24.778;2023-04-26T07:08:58;100324.69;;;12.29;73.04
40908;BME280;51055;59.436;24.778;2023-04-26T07:11:28;100325.81;;;12.17;73.00
40908;BME280;51055;59.436;24.778;2023-04-26T07:13:55;100330.88;;;12.20;73.56
40908;BME280;51055;59.436;24.778;2023-04-26T07:16:23;100323.69;;;12.30;72.92
40908;BME280;51055;59.436;24.778;2023-04-26T07:18:51;100326.34;;;12.40;71.69
40908;BME280;51055;59.436;24.778;2023-04-26T07:21:25;100340.34;;;12.32;71.42
40908;BME280;51055;59.436;24.778;2023-04-26T07:23:54;100335.91;;;12.23;71.86
40908;BME280;51055;59.436;24.778;2023-04-26T07:26:23;100342.47;;;12.19;72.16
40908;BME280;51055;59.436;24.778;2023-04-26T07:28:51;100339.66;;;12.11;71.95
40908;BME280;51055;59.436;24.778;2023-04-26T07:31:19;100338.69;;;12.22;71.07
40908;BME280;51055;59.436;24.778;2023-04-26T07:33:46;100347.47;;;12.41;70.42
40908;BME280;51055;59.436;24.778;2023-04-26T07:36:14;100341.88;;;12.35;69.99
40908;BME280;51055;59.436;24.778;2023-04-26T07:38:42;100346.50;;;12.42;70.21
40908;BME280;51055;59.436;24.778;2023-04-26T07:41:10;100343.94;;;12.60;70.22
40908;BME280;51055;59.436;24.778;2023-04-26T07:43:39;100339.41;;;12.80;69.04
40908;BME280;51055;59.436;24.778;2023-04-26T07:46:07;100339.19;;;13.00;68.11
40908;BME280;51055;59.436;24.778;2023-04-26T07:48:35;100339.28;;;13.18;66.92
40908;BME280;51055;59.436;24.778;2023-04-26T07:51:10;100327.94;;;13.43;64.79
40908;BME280;51055;59.436;24.778;2023-04-26T07:53:38;100330.63;;;13.61;63.31
40908;BME280;51055;59.436;24.778;2023-04-26T07:56:07;100332.44;;;14.14;61.75
40908;BME280;51055;59.436;24.778;2023-04-26T07:58:35;100331.06;;;14.71;59.96
40908;BME280;51055;59.436;24.778;2023-04-26T08:01:03;100340.75;;;15.05;57.32
40908;BME280;51055;59.436;24.778;2023-04-26T08:03:32;100338.81;;;15.16;55.24
40908;BME280;51055;59.436;24.778;2023-04-26T08:06:00;100329.22;;;15.39;54.25
40908;BME280;51055;59.436;24.778;2023-04-26T08:08:29;100333.97;;;15.53;53.25
40908;BME280;51055;59.436;24.778;2023-04-26T08:10:57;100339.75;;;15.40;52.32
40908;BME280;51055;59.436;24.778;2023-04-26T08:13:24;100342.69;;;15.21;51.80
40908;BME280;51055;59.436;24.778;2023-04-26T08:15:55;100350.41;;;14.73;53.03
40908;BME280;51055;59.436;24.778;2023-04-26T08:18:23;100344.16;;;14.56;52.70
40908;BME280;51055;59.436;24.778;2023-04-26T08:20:50;100340.59;;;14.47;52.66
40908;BME280;51055;59.436;24.778;2023-04-26T08:23:18;100341.00;;;14.35;51.21
40908;BME280;51055;59.436;24.778;2023-04-26T08:25:45;100337.84;;;14.22;51.62
40908;BME280;51055;59.436;24.778;2023-04-26T08:28:15;100342.06;;;14.06;52.56
40908;BME280;51055;59.436;24.778;2023-04-26T08:30:42;100344.66;;;13.98;52.98
40908;BME280;51055;59.436;24.778;2023-04-26T08:33:11;100340.06;;;13.91;53.39
40908;BME280;51055;59.436;24.778;2023-04-26T08:35:38;100345.03;;;13.86;53.76
40908;BME280;51055;59.436;24.778;2023-04-26T08:38:06;100342.13;;;13.79;52.71
40908;BME280;51055;59.436;24.778;2023-04-26T08:40:35;100344.88;;;13.70;53.16
40908;BME280;51055;59.436;24.778;2023-04-26T08:43:02;100349.13;;;13.63;53.24
40908;BME280;51055;59.436;24.778;2023-04-26T08:45:33;100343.66;;;13.64;53.55
40908;BME280;51055;59.436;24.778;2023-04-26T08:48:05;100348.38;;;13.70;53.41
40908;BME280;51055;59.436;24.778;2023-04-26T08:50:37;100340.59;;;13.59;54.05
40908;BME280;51055;59.436;24.778;2023-04-26T08:53:06;100336.00;;;13.51;54.29
40908;BME280;51055;59.436;24.778;2023-04-26T08:55:35;100346.66;;;13.51;54.48
40908;BME280;51055;59.436;24.778;2023-04-26T08:58:04;100353.53;;;13.54;54.57
40908;BME280;51055;59.436;24.778;2023-04-26T09:00:35;100351.16;;;13.51;54.73
40908;BME280;51055;59.436;24.778;2023-04-26T09:03:03;100358.47;;;13.49;54.99
40908;BME280;51055;59.436;24.778;2023-04-26T09:05:33;100349.31;;;13.51;56.21
40908;BME280;51055;59.436;24.778;2023-04-26T09:08:01;100356.19;;;13.54;56.22
40908;BME280;51055;59.436;24.778;2023-04-26T09:10:32;100359.25;;;13.59;56.71
40908;BME280;51055;59.436;24.778;2023-04-26T09:12:59;100366.78;;;13.64;56.34
40908;BME280;51055;59.436;24.778;2023-04-26T09:15:27;100353.91;;;13.59;56.61
40908;BME280;51055;59.436;24.778;2023-04-26T09:17:55;100357.06;;;13.72;57.15
40908;BME280;51055;59.436;24.778;2023-04-26T09:20:27;100361.09;;;13.76;56.43
40908;BME280;51055;59.436;24.778;2023-04-26T09:23:07;100360.69;;;13.71;56.80
40908;BME280;51055;59.436;24.778;2023-04-26T09:25:36;100367.03;;;13.70;57.03
40908;BME280;51055;59.436;24.778;2023-04-26T09:28:17;100361.41;;;13.73;56.59
40908;BME280;51055;59.436;24.778;2023-04-26T09:30:45;100360.41;;;13.74;56.81
40908;BME280;51055;59.436;24.778;2023-04-26T09:33:13;100360.41;;;13.74;56.25
40908;BME280;51055;59.436;24.778;2023-04-26T09:35:42;100359.81;;;13.80;55.92
40908;BME280;51055;59.436;24.778;2023-04-26T09:40:48;100361.03;;;13.86;56.51
40908;BME280;51055;59.436;24.778;2023-04-26T09:43:20;100369.84;;;13.69;57.21
40908;BME280;51055;59.436;24.778;2023-04-26T09:48:23;100369.00;;;13.68;56.66
40908;BME280;51055;59.436;24.778;2023-04-26T09:50:58;100366.38;;;13.41;57.46
40908;BME280;51055;59.436;24.778;2023-04-26T09:53:33;100365.97;;;13.36;58.19
40908;BME280;51055;59.436;24.778;2023-04-26T09:56:12;100359.25;;;13.32;58.28
40908;BME280;51055;59.436;24.778;2023-04-26T10:01:11;100364.44;;;13.33;57.93
40908;BME280;51055;59.436;24.778;2023-04-26T10:03:40;100359.25;;;13.32;58.14
40908;BME280;51055;59.436;24.778;2023-04-26T10:06:10;100358.88;;;13.27;57.45
40908;BME280;51055;59.436;24.778;2023-04-26T10:08:38;100367.44;;;13.21;58.15
40908;BME280;51055;59.436;24.778;2023-04-26T10:11:07;100362.50;;;13.26;58.48
40908;BME280;51055;59.436;24.778;2023-04-26T10:13:38;100366.72;;;13.28;58.30
40908;BME280;51055;59.436;24.778;2023-04-26T10:16:06;100363.16;;;13.37;58.92
40908;BME280;51055;59.436;24.778;2023-04-26T10:18:36;100364.19;;;13.27;58.72
40908;BME280;51055;59.436;24.778;2023-04-26T10:21:20;100367.78;;;13.35;58.13
40908;BME280;51055;59.436;24.778;2023-04-26T10:23:49;100362.81;;;13.50;57.95
40908;BME280;51055;59.436;24.778;2023-04-26T10:26:47;100354.13;;;13.48;57.52
40908;BME280;51055;59.436;24.778;2023-04-26T10:29:19;100350.09;;;13.44;57.04
40908;BME280;51055;59.436;24.778;2023-04-26T10:34:29;100360.75;;;13.07;58.46
40908;BME280;51055;59.436;24.778;2023-04-26T10:37:13;100364.59;;;12.95;58.43
40908;BME280;51055;59.436;24.778;2023-04-26T10:39:44;100367.66;;;12.90;59.79
40908;BME280;51055;59.436;24.778;2023-04-26T10:44:54;100362.97;;;12.65;61.07
40908;BME280;51055;59.436;24.778;2023-04-26T10:47:33;100361.72;;;12.69;61.61
40908;BME280;51055;59.436;24.778;2023-04-26T10:50:08;100357.66;;;12.65;60.64
40908;BME280;51055;59.436;24.778;2023-04-26T10:55:39;100359.88;;;12.70;60.63
40908;BME280;51055;59.436;24.778;2023-04-26T10:58:30;100361.13;;;12.75;61.12
40908;BME280;51055;59.436;24.778;2023-04-26T11:01:05;100353.41;;;12.82;60.35
40908;BME280;51055;59.436;24.778;2023-04-26T11:03:34;100362.31;;;13.00;60.48
40908;BME280;51055;59.436;24.778;2023-04-26T11:06:06;100369.00;;;13.14;60.80
40908;BME280;51055;59.436;24.778;2023-04-26T11:08:35;100369.50;;;13.27;59.90
40908;BME280;51055;59.436;24.778;2023-04-26T11:13:35;100377.13;;;13.22;59.88
40908;BME280;51055;59.436;24.778;2023-04-26T11:16:14;100380.34;;;13.16;59.53
40908;BME280;51055;59.436;24.778;2023-04-26T11:18:46;100388.78;;;13.01;60.23
40908;BME280;51055;59.436;24.778;2023-04-26T11:21:14;100376.84;;;13.05;60.84
40908;BME280;51055;59.436;24.778;2023-04-26T11:23:54;100371.13;;;13.10;61.24
40908;BME280;51055;59.436;24.778;2023-04-26T11:26:22;100370.72;;;13.05;61.50
40908;BME280;51055;59.436;24.778;2023-04-26T11:28:51;100368.03;;;13.05;61.82
40908;BME280;51055;59.436;24.778;2023-04-26T11:31:19;100367.53;;;12.92;61.61
40908;BME280;51055;59.436;24.778;2023-04-26T11:33:47;100375.38;;;12.84;62.10
40908;BME280;51055;59.436;24.778;2023-04-26T11:36:17;100368.13;;;12.76;61.36
40908;BME280;51055;59.436;24.778;2023-04-26T11:38:47;100381.59;;;12.65;61.83
40908;BME280;51055;59.436;24.778;2023-04-26T11:41:15;100377.00;;;12.58;62.35
40908;BME280;51055;59.436;24.778;2023-04-26T11:43:43;100382.31;;;12.48;63.03
40908;BME280;51055;59.436;24.778;2023-04-26T11:46:11;100384.44;;;12.44;63.39
40908;BME280;51055;59.436;24.778;2023-04-26T11:48:39;100383.31;;;12.47;63.36
40908;BME280;51055;59.436;24.778;2023-04-26T11:51:08;100379.66;;;12.48;63.97
40908;BME280;51055;59.436;24.778;2023-04-26T11:53:41;100385.41;;;12.53;63.81
40908;BME280;51055;59.436;24.778;2023-04-26T11:56:19;100384.84;;;12.59;64.15
40908;BME280;51055;59.436;24.778;2023-04-26T11:58:48;100388.03;;;12.72;62.50
40908;BME280;51055;59.436;24.778;2023-04-26T12:01:26;100396.84;;;12.82;62.36
40908;BME280;51055;59.436;24.778;2023-04-26T12:03:56;100391.38;;;12.74;62.08
40908;BME280;51055;59.436;24.778;2023-04-26T12:06:40;100393.75;;;12.77;62.29
40908;BME280;51055;59.436;24.778;2023-04-26T12:09:08;100390.16;;;12.69;62.52
40908;BME280;51055;59.436;24.778;2023-04-26T12:11:38;100390.69;;;12.72;62.68
40908;BME280;51055;59.436;24.778;2023-04-26T12:14:06;100392.06;;;12.76;62.54
40908;BME280;51055;59.436;24.778;2023-04-26T12:16:37;100391.13;;;12.68;62.56
40908;BME280;51055;59.436;24.778;2023-04-26T12:19:07;100392.69;;;12.51;62.78
40908;BME280;51055;59.436;24.778;2023-04-26T12:21:42;100389.44;;;12.57;62.63
40908;BME280;51055;59.436;24.778;2023-04-26T12:24:26;100393.25;;;12.54;63.12
40908;BME280;51055;59.436;24.778;2023-04-26T12:26:56;100392.94;;;12.58;62.96
40908;BME280;51055;59.436;24.778;2023-04-26T12:29:26;100387.78;;;12.56;63.75
40908;BME280;51055;59.436;24.778;2023-04-26T12:31:57;100387.78;;;12.66;63.42
40908;BME280;51055;59.436;24.778;2023-04-26T12:34:25;100394.38;;;12.52;63.15
40908;BME280;51055;59.436;24.778;2023-04-26T12:36:53;100401.63;;;12.50;62.84
40908;BME280;51055;59.436;24.778;2023-04-26T12:39:21;100388.75;;;12.55;62.57
40908;BME280;51055;59.436;24.778;2023-04-26T12:41:48;100393.25;;;12.54;62.81
40908;BME280;51055;59.436;24.778;2023-04-26T12:44:16;100397.31;;;12.49;63.25
40908;BME280;51055;59.436;24.778;2023-04-26T12:46:48;100392.13;;;12.47;63.04
40908;BME280;51055;59.436;24.778;2023-04-26T12:49:16;100392.84;;;12.40;63.58
40908;BME280;51055;59.436;24.778;2023-04-26T12:51:44;100391.44;;;12.36;63.22
40908;BME280;51055;59.436;24.778;2023-04-26T12:54:12;100391.00;;;12.31;62.96
40908;BME280;51055;59.436;24.778;2023-04-26T12:56:39;100391.59;;;12.15;64.07
40908;BME280;51055;59.436;24.778;2023-04-26T12:59:10;100389.47;;;12.28;64.54
40908;BME280;51055;59.436;24.778;2023-04-26T13:01:38;100402.38;;;12.23;64.68
40908;BME280;51055;59.436;24.778;2023-04-26T13:04:06;100404.75;;;12.36;65.05
40908;BME280;51055;59.436;24.778;2023-04-26T13:06:34;100399.28;;;12.37;64.18
40908;BME280;51055;59.436;24.778;2023-04-26T13:09:02;100394.69;;;12.30;64.21